Time;durP1;ratioP1;P1;durP2;ratioP2;P2;SDS_P1;SDS_P2;PMS_P1;PMS_P2;Temp;Humidity;BMP_temperature;BMP_pressure;BME280_temperature;BME280_humidity;BME280_pressure;Samples;Min_cycle;Max_cycle;Signal;HPM_P1;HPM_P2
2023/02/24 00:01:42;;;;;;;29.17;5.40;;;4.40;99.90;;;;;;5050229;28;20541;-43
2023/02/24 00:04:12;;;;;;;29.38;4.65;;;4.40;99.90;;;;;;5050673;28;20064;-43
2023/02/24 00:06:40;;;;;;;14.45;3.53;;;4.30;99.90;;;;;;5064526;28;20385;-42
2023/02/24 00:09:18;;;;;;;18.67;4.03;;;4.30;99.90;;;;;;5070481;28;20036;-42
2023/02/24 00:11:47;;;;;;;27.58;4.80;;;4.30;99.90;;;;;;5070542;28;20036;-43
2023/02/24 00:14:15;;;;;;;33.30;4.00;;;4.20;99.90;;;;;;5070414;28;20028;-43
2023/02/24 00:16:42;;;;;;;22.15;4.07;;;4.20;99.90;;;;;;5062666;28;20309;-43
2023/02/24 00:19:10;;;;;;;22.15;4.72;;;4.30;99.90;;;;;;5050089;28;20100;-44
2023/02/24 00:21:35;;;;;;;21.13;4.07;;;4.20;99.90;;;;;;5049994;28;20035;-42
2023/02/24 00:24:02;;;;;;;20.67;4.63;;;4.20;99.90;;;;;;5049969;28;20033;-44
2023/02/24 00:26:28;;;;;;;29.00;4.30;;;4.20;99.90;;;;;;5050129;28;20033;-42
2023/02/24 00:28:55;;;;;;;34.42;5.00;;;4.20;99.90;;;;;;5050043;28;20126;-44
2023/02/24 00:31:22;;;;;;;24.30;4.65;;;4.20;99.90;;;;;;5049175;28;20025;-42
2023/02/24 00:33:48;;;;;;;29.65;4.65;;;4.20;99.90;;;;;;5049912;28;20017;-42
2023/02/24 00:36:22;;;;;;;29.52;7.80;;;4.10;99.90;;;;;;5050201;28;20033;-42
2023/02/24 00:38:54;;;;;;;37.75;4.65;;;4.10;99.90;;;;;;5050042;28;20033;-45
2023/02/24 00:41:21;;;;;;;24.80;5.03;;;4.10;99.90;;;;;;5053607;28;20074;-42
2023/02/24 00:43:48;;;;;;;19.60;4.05;;;4.00;99.90;;;;;;5049653;28;20421;-44
2023/02/24 00:46:19;;;;;;;32.20;5.38;;;4.00;99.90;;;;;;5049833;28;20490;-42
2023/02/24 00:48:47;;;;;;;31.42;4.35;;;4.10;99.90;;;;;;5048038;28;20132;-42
2023/02/24 00:51:15;;;;;;;27.05;5.28;;;4.10;99.90;;;;;;5049786;28;20079;-44
2023/02/24 00:53:41;;;;;;;22.92;4.22;;;4.10;99.90;;;;;;5049344;28;20476;-43
2023/02/24 00:56:11;;;;;;;21.88;4.38;;;4.10;99.90;;;;;;5049719;28;20108;-45
2023/02/24 00:58:38;;;;;;;26.85;5.30;;;4.00;99.90;;;;;;5049802;28;20107;-43
2023/02/24 01:01:07;;;;;;;20.48;4.50;;;4.00;99.90;;;;;;5049517;28;20029;-42
2023/02/24 01:03:33;;;;;;;21.30;4.75;;;4.00;99.90;;;;;;5048775;28;20028;-46
2023/02/24 01:06:02;;;;;;;21.23;5.45;;;4.00;99.90;;;;;;5048144;28;20075;-43
2023/02/24 01:08:28;;;;;;;24.05;5.32;;;4.00;99.90;;;;;;5047940;28;20029;-43
2023/02/24 01:13:55;;;;;;;30.98;6.30;;;4.00;99.90;;;;;;5056444;28;20047;-46
2023/02/24 01:16:21;;;;;;;27.35;5.47;;;3.90;99.90;;;;;;5066128;28;20032;-43
2023/02/24 01:18:47;;;;;;;30.63;5.93;;;3.90;99.90;;;;;;5048507;28;20060;-44
2023/02/24 01:21:14;;;;;;;28.90;4.70;;;3.90;99.90;;;;;;5048971;28;20071;-43
2023/02/24 01:23:41;;;;;;;43.53;4.97;;;3.80;99.90;;;;;;5048631;28;20100;-42
2023/02/24 01:26:07;;;;;;;25.13;4.15;;;3.70;99.90;;;;;;5049134;28;20036;-43
2023/02/24 01:28:32;;;;;;;40.80;5.05;;;3.70;99.90;;;;;;5049373;28;20037;-43
2023/02/24 01:31:02;;;;;;;24.58;4.80;;;3.60;99.90;;;;;;5048942;28;20025;-43
2023/02/24 01:33:28;;;;;;;29.70;5.18;;;3.60;99.90;;;;;;5047086;28;20174;-42
2023/02/24 01:35:55;;;;;;;27.00;4.72;;;3.70;99.90;;;;;;5049355;28;20024;-43
2023/02/24 01:38:22;;;;;;;30.92;4.32;;;3.60;99.90;;;;;;5049081;28;20025;-42
2023/02/24 01:40:58;;;;;;;16.40;3.63;;;3.70;99.90;;;;;;5048869;28;20025;-42
2023/02/24 01:43:23;;;;;;;21.33;4.78;;;3.70;99.90;;;;;;5048272;28;20021;-43
2023/02/24 01:45:50;;;;;;;28.30;4.60;;;3.80;99.90;;;;;;5048565;28;20032;-44
2023/02/24 01:48:17;;;;;;;16.50;3.70;;;3.70;99.90;;;;;;5048178;28;20060;-42
2023/02/24 01:50:44;;;;;;;27.10;5.18;;;3.80;99.90;;;;;;5048555;28;20025;-42
2023/02/24 01:53:10;;;;;;;18.00;5.43;;;3.80;99.90;;;;;;5048098;28;20017;-43
2023/02/24 01:55:42;;;;;;;21.70;4.68;;;3.80;99.90;;;;;;5048166;28;20440;-42
2023/02/24 01:58:14;;;;;;;18.48;3.90;;;3.80;99.90;;;;;;5047372;28;20032;-42
2023/02/24 02:00:46;;;;;;;24.40;4.43;;;3.90;99.90;;;;;;5048466;28;20107;-42
2023/02/24 02:03:18;;;;;;;19.92;3.65;;;3.80;99.90;;;;;;5047761;28;20021;-43
2023/02/24 02:05:47;;;;;;;19.00;3.55;;;3.90;99.90;;;;;;5039483;28;20032;-42
2023/02/24 02:08:14;;;;;;;20.75;3.83;;;3.90;99.90;;;;;;5048799;28;20379;-42
2023/02/24 02:10:42;;;;;;;12.88;3.17;;;3.90;99.90;;;;;;5048545;28;20025;-44
2023/02/24 02:13:09;;;;;;;19.25;4.63;;;3.90;99.90;;;;;;5047941;28;20083;-43
2023/02/24 02:15:47;;;;;;;26.17;5.68;;;3.90;99.90;;;;;;5047133;28;20176;-43
2023/02/24 02:18:46;;;;;;;19.75;4.40;;;3.90;99.90;;;;;;5047878;28;20104;-42
2023/02/24 02:21:21;;;;;;;22.33;4.53;;;4.00;99.90;;;;;;5045370;28;20051;-44
2023/02/24 02:23:57;;;;;;;28.65;3.97;;;3.90;99.90;;;;;;5048049;28;20021;-43
2023/02/24 02:26:41;;;;;;;19.70;4.30;;;3.90;99.90;;;;;;5048829;28;20371;-42
2023/02/24 02:29:07;;;;;;;26.35;5.28;;;3.90;99.90;;;;;;5041934;28;20494;-43
2023/02/24 02:32:06;;;;;;;22.83;5.35;;;4.00;99.90;;;;;;5043997;28;20061;-43
2023/02/24 02:34:37;;;;;;;26.60;4.28;;;4.00;99.90;;;;;;5046050;28;20398;-42
2023/02/24 02:37:13;;;;;;;24.13;4.68;;;4.00;99.90;;;;;;5044805;28;20036;-43
2023/02/24 02:40:06;;;;;;;22.90;3.97;;;3.90;99.90;;;;;;5045094;28;20397;-43
2023/02/24 02:42:52;;;;;;;25.77;4.72;;;4.00;99.90;;;;;;5043296;28;20378;-43
2023/02/24 02:45:21;;;;;;;18.90;3.67;;;4.00;99.90;;;;;;5048082;28;20086;-43
2023/02/24 02:48:06;;;;;;;23.17;4.07;;;4.00;99.90;;;;;;5044034;28;20022;-43
2023/02/24 02:50:42;;;;;;;17.85;3.67;;;4.00;99.90;;;;;;5046862;28;20120;-42
2023/02/24 02:53:29;;;;;;;24.67;5.75;;;4.00;99.90;;;;;;5047915;28;20123;-42
2023/02/24 02:56:10;;;;;;;17.30;3.97;;;4.00;99.90;;;;;;5048739;28;20048;-42
2023/02/24 02:58:41;;;;;;;24.23;3.95;;;4.00;99.90;;;;;;5048156;28;20029;-42
2023/02/24 03:01:09;;;;;;;12.13;3.33;;;4.00;99.90;;;;;;5046695;28;20025;-42
2023/02/24 03:03:43;;;;;;;18.48;4.20;;;4.00;99.90;;;;;;5045579;28;20478;-43
2023/02/24 03:06:25;;;;;;;23.13;3.35;;;4.00;99.90;;;;;;5048158;28;20029;-42
2023/02/24 03:09:14;;;;;;;20.52;3.25;;;4.00;99.90;;;;;;5066142;28;20025;-42
2023/02/24 03:11:47;;;;;;;21.13;5.07;;;4.00;99.90;;;;;;5044551;28;20103;-42
2023/02/24 03:14:18;;;;;;;23.52;3.80;;;4.00;99.90;;;;;;5051577;28;20017;-43
2023/02/24 03:16:44;;;;;;;;;;;4.00;99.90;;;;;;5051570;28;20512;-42
2023/02/24 03:19:14;;;;;;;18.52;3.42;;;4.00;99.90;;;;;;5051211;28;20400;-42
2023/02/24 03:21:44;;;;;;;17.25;3.78;;;3.90;99.90;;;;;;5051461;28;20096;-42
2023/02/24 03:24:10;;;;;;;24.43;3.63;;;3.90;99.90;;;;;;5051397;28;20494;-42
2023/02/24 03:26:48;;;;;;;18.88;4.47;;;4.00;99.90;;;;;;5051464;28;20259;-42
2023/02/24 03:29:24;;;;;;;22.30;3.22;;;3.90;99.90;;;;;;5050185;28;20310;-42
2023/02/24 03:32:01;;;;;;;20.20;4.20;;;4.00;99.90;;;;;;5051200;28;20379;-41
2023/02/24 03:34:49;;;;;;;14.07;2.67;;;4.00;99.90;;;;;;5049585;28;20040;-42
2023/02/24 03:37:15;;;;;;;23.60;3.63;;;4.00;99.90;;;;;;5052750;28;20025;-43
2023/02/24 03:40:27;;;;;;;18.30;2.70;;;4.00;99.90;;;;;;5069134;28;20604;-42
2023/02/24 03:43:03;;;;;;;11.90;3.15;;;4.00;99.90;;;;;;5068786;28;20389;-42
2023/02/24 03:45:37;;;;;;;19.65;3.25;;;3.90;99.90;;;;;;5070936;28;20269;-41
2023/02/24 03:48:05;;;;;;;9.18;2.58;;;3.90;99.90;;;;;;5053437;28;20167;-42
2023/02/24 03:50:32;;;;;;;15.07;3.20;;;3.90;99.90;;;;;;5050587;28;20017;-42
2023/02/24 03:53:01;;;;;;;17.95;4.30;;;3.90;99.90;;;;;;5050257;28;20032;-49
2023/02/24 03:55:42;;;;;;;8.73;2.33;;;3.90;99.90;;;;;;5050706;28;20017;-50
2023/02/24 03:58:31;;;;;;;18.98;2.92;;;3.90;99.90;;;;;;5051012;28;20104;-49
2023/02/24 04:01:09;;;;;;;16.42;3.88;;;3.90;99.90;;;;;;5049593;28;20036;-48
2023/02/24 04:03:43;;;;;;;18.52;3.72;;;3.90;99.90;;;;;;5048581;28;20021;-47
2023/02/24 04:06:26;;;;;;;13.63;2.50;;;3.90;99.90;;;;;;5050537;28;20032;-49
2023/02/24 04:09:25;;;;;;;15.63;2.72;;;3.90;99.90;;;;;;5050470;28;20134;-50
2023/02/24 04:11:57;;;;;;;13.63;2.45;;;3.90;99.90;;;;;;5050190;28;20025;-51
2023/02/24 04:14:45;;;;;;;12.07;3.47;;;4.00;99.90;;;;;;5050103;28;20033;-49
2023/02/24 04:17:21;;;;;;;25.13;3.38;;;4.00;99.90;;;;;;5050756;28;20081;-51
2023/02/24 04:19:50;;;;;;;6.40;2.03;;;3.90;99.90;;;;;;5050269;28;20036;-49
2023/02/24 04:22:22;;;;;;;13.10;3.72;;;3.90;99.90;;;;;;5049644;28;20025;-48
2023/02/24 04:24:51;;;;;;;10.93;2.53;;;3.90;99.90;;;;;;5050470;28;20486;-49
2023/02/24 04:27:18;;;;;;;21.00;2.70;;;3.90;99.90;;;;;;5050591;28;20600;-50
2023/02/24 04:29:51;;;;;;;11.60;3.15;;;3.90;99.90;;;;;;5050573;28;20091;-48
2023/02/24 04:32:21;;;;;;;13.98;2.70;;;3.90;99.90;;;;;;5049886;28;20013;-50
2023/02/24 04:34:47;;;;;;;6.20;2.00;;;3.90;99.90;;;;;;5049464;28;20022;-50
2023/02/24 04:37:13;;;;;;;11.13;2.20;;;3.90;99.90;;;;;;5050191;28;20117;-49
2023/02/24 04:39:39;;;;;;;26.30;3.05;;;3.90;99.90;;;;;;5050083;28;20104;-49
2023/02/24 04:42:05;;;;;;;8.52;2.25;;;3.90;99.90;;;;;;5050367;28;20037;-48
2023/02/24 04:44:31;;;;;;;9.65;2.45;;;3.80;99.90;;;;;;5050061;28;20036;-48
2023/02/24 04:46:59;;;;;;;13.48;3.13;;;3.80;99.90;;;;;;5050052;28;20028;-51
2023/02/24 04:49:25;;;;;;;13.23;2.72;;;3.90;99.90;;;;;;5049323;28;20026;-51
2023/02/24 04:51:50;;;;;;;10.55;2.47;;;3.80;99.90;;;;;;5049651;28;20135;-48
2023/02/24 04:54:19;;;;;;;15.13;2.92;;;3.80;99.90;;;;;;5049737;28;20036;-50
2023/02/24 04:56:55;;;;;;;12.27;2.70;;;3.80;99.90;;;;;;5049820;28;20047;-52
2023/02/24 04:59:21;;;;;;;10.63;2.63;;;3.80;99.90;;;;;;5049902;28;20104;-51
2023/02/24 05:01:50;;;;;;;17.58;2.40;;;3.80;99.90;;;;;;5049648;28;20028;-48
2023/02/24 05:04:16;;;;;;;9.50;2.50;;;3.80;99.90;;;;;;5049046;28;20465;-50
2023/02/24 05:06:45;;;;;;;15.90;3.15;;;3.80;99.90;;;;;;5049344;28;20108;-47
2023/02/24 05:09:13;;;;;;;17.92;3.35;;;3.80;99.90;;;;;;5049436;28;20091;-49
2023/02/24 05:11:43;;;;;;;15.90;3.38;;;3.80;99.90;;;;;;5049386;28;20025;-49
2023/02/24 05:14:13;;;;;;;20.70;3.83;;;3.80;99.90;;;;;;5049163;28;20104;-50
2023/02/24 05:16:42;;;;;;;23.33;3.57;;;3.80;99.90;;;;;;5049231;28;20055;-49
2023/02/24 05:21:56;;;;;;;22.50;3.30;;;3.80;99.90;;;;;;5049445;28;20091;-51
2023/02/24 05:24:28;;;;;;;12.02;2.80;;;3.80;99.90;;;;;;5049061;28;20442;-49
2023/02/24 05:26:58;;;;;;;15.00;4.20;;;3.80;99.90;;;;;;5049278;28;20017;-48
2023/02/24 05:29:31;;;;;;;14.73;3.30;;;3.80;99.90;;;;;;5048878;28;20082;-51
2023/02/24 05:31:58;;;;;;;20.73;3.90;;;3.80;99.90;;;;;;5048833;28;20459;-49
2023/02/24 05:34:31;;;;;;;18.83;3.63;;;3.80;99.90;;;;;;5047273;28;20075;-49
2023/02/24 05:36:58;;;;;;;12.30;2.95;;;3.80;99.90;;;;;;5049054;28;20279;-48
2023/02/24 05:39:25;;;;;;;27.17;5.90;;;3.80;99.90;;;;;;5048997;28;20021;-50
2023/02/24 05:41:55;;;;;;;18.73;3.33;;;3.80;99.90;;;;;;5047551;28;20478;-48
2023/02/24 05:44:22;;;;;;;10.50;3.13;;;3.70;99.90;;;;;;5048790;28;20029;-49
2023/02/24 05:46:51;;;;;;;14.20;2.95;;;3.70;99.90;;;;;;5048779;28;20029;-50
2023/02/24 05:49:22;;;;;;;10.00;2.92;;;3.70;99.90;;;;;;5048550;28;20052;-49
2023/02/24 05:51:54;;;;;;;11.60;2.92;;;3.70;99.90;;;;;;5047277;28;20496;-49
2023/02/24 05:54:28;;;;;;;21.90;4.55;;;3.70;99.90;;;;;;5048344;28;20402;-48
2023/02/24 05:56:59;;;;;;;11.65;2.10;;;3.70;99.90;;;;;;5047775;28;20777;-51
2023/02/24 05:59:31;;;;;;;17.52;3.10;;;3.70;99.90;;;;;;5048728;28;20481;-49
2023/02/24 06:01:59;;;;;;;14.70;2.20;;;3.70;99.90;;;;;;5048882;28;20029;-50
2023/02/24 06:05:07;;;;;;;13.32;2.58;;;3.70;99.90;;;;;;5047164;28;20028;-51
2023/02/24 06:07:19;;;;;;;16.20;3.60;;;3.60;99.90;;;;;;5028206;28;20477;-51
2023/02/24 06:09:52;;;;;;;18.55;3.40;;;3.70;99.90;;;;;;5028454;28;20079;-48
2023/02/24 06:12:19;;;;;;;16.98;3.17;;;3.70;99.90;;;;;;5028232;28;20414;-49
2023/02/24 06:14:46;;;;;;;14.93;3.55;;;3.70;99.90;;;;;;5034105;28;20092;-48
2023/02/24 06:17:14;;;;;;;11.32;2.03;;;3.70;99.90;;;;;;5048199;28;20104;-48
2023/02/24 06:19:40;;;;;;;6.68;2.20;;;3.60;99.90;;;;;;5048767;28;20425;-51
2023/02/24 06:22:09;;;;;;;11.15;2.80;;;3.60;99.90;;;;;;5048285;28;20055;-50
2023/02/24 06:24:35;;;;;;;12.82;3.20;;;3.60;99.90;;;;;;5048503;28;20100;-48
2023/02/24 06:27:08;;;;;;;4.85;1.75;;;3.60;99.90;;;;;;5047558;28;20555;-48
2023/02/24 06:29:35;;;;;;;5.82;1.98;;;3.60;99.90;;;;;;5048755;28;20028;-48
2023/02/24 06:32:07;;;;;;;18.77;2.38;;;3.60;99.90;;;;;;5048467;28;20056;-49
2023/02/24 06:34:36;;;;;;;14.13;2.63;;;3.60;99.90;;;;;;5047576;28;20597;-49
2023/02/24 06:37:03;;;;;;;12.63;2.28;;;3.70;99.90;;;;;;5048208;28;20071;-48
2023/02/24 06:39:33;;;;;;;12.82;1.90;;;3.70;99.90;;;;;;5046403;28;20023;-48
2023/02/24 06:42:03;;;;;;;9.52;1.92;;;3.70;99.90;;;;;;5049705;28;20025;-49
2023/02/24 06:44:34;;;;;;;8.98;2.08;;;3.70;99.90;;;;;;5052181;28;20733;-48
2023/02/24 06:46:59;;;;;;;;;;;3.60;99.90;;;;;;5052552;28;20090;-48
2023/02/24 06:49:26;;;;;;;6.63;1.80;;;3.60;99.90;;;;;;5051798;28;19913;-48
2023/02/24 06:51:53;;;;;;;8.68;2.28;;;3.70;99.90;;;;;;5051748;28;20028;-49
2023/02/24 06:54:21;;;;;;;6.88;2.00;;;3.60;99.90;;;;;;5050570;28;20415;-48
2023/02/24 06:56:47;;;;;;;9.13;2.88;;;3.70;99.90;;;;;;5051750;28;20025;-48
2023/02/24 06:59:20;;;;;;;11.52;2.42;;;3.70;99.90;;;;;;5052017;28;20450;-49
2023/02/24 07:01:46;;;;;;;11.93;2.85;;;3.70;99.90;;;;;;5051615;28;20112;-49
2023/02/24 07:06:40;;;;;;;10.13;2.28;;;3.80;99.90;;;;;;5051354;28;20021;-49
2023/02/24 07:09:11;;;;;;;12.27;2.72;;;3.80;99.90;;;;;;5041835;28;20060;-49
2023/02/24 07:11:41;;;;;;;10.80;2.33;;;3.80;99.90;;;;;;5049372;28;20447;-48
2023/02/24 07:14:10;;;;;;;10.63;2.53;;;3.90;99.90;;;;;;5051565;28;20028;-48
2023/02/24 07:16:36;;;;;;;11.13;2.78;;;3.90;99.90;;;;;;5050886;28;20029;-54
2023/02/24 07:19:08;;;;;;;12.10;2.80;;;3.80;99.90;;;;;;5051463;28;20287;-49
2023/02/24 07:21:38;;;;;;;7.13;2.33;;;3.80;99.90;;;;;;5050616;28;20059;-47
2023/02/24 07:24:23;;;;;;;9.98;2.30;;;3.80;99.90;;;;;;5066155;28;20099;-48
2023/02/24 07:26:57;;;;;;;6.38;2.20;;;3.80;99.90;;;;;;5050749;28;20029;-48
2023/02/24 07:29:25;;;;;;;7.93;1.65;;;3.80;99.90;;;;;;5051070;28;20025;-48
2023/02/24 07:31:53;;;;;;;9.52;1.80;;;3.80;99.90;;;;;;5051058;28;20523;-48
2023/02/24 07:34:23;;;;;;;5.75;2.10;;;3.80;99.90;;;;;;5050015;28;20112;-50
2023/02/24 07:36:53;;;;;;;14.43;3.08;;;3.90;99.90;;;;;;5050953;28;20028;-49
2023/02/24 07:39:21;;;;;;;6.45;1.80;;;3.80;99.90;;;;;;5048784;28;20065;-49
2023/02/24 07:41:48;;;;;;;7.18;1.67;;;3.90;99.90;;;;;;5068434;28;20036;-49
2023/02/24 07:44:15;;;;;;;8.52;1.83;;;4.00;99.90;;;;;;5065304;28;20021;-48
2023/02/24 07:46:41;;;;;;;6.20;1.83;;;4.00;99.90;;;;;;5050457;28;20037;-47
2023/02/24 07:49:11;;;;;;;4.88;1.67;;;4.00;99.90;;;;;;5051026;28;20075;-48
2023/02/24 07:51:37;;;;;;;11.38;2.03;;;4.00;99.90;;;;;;5049894;28;20021;-48
2023/02/24 07:54:04;;;;;;;8.57;2.08;;;4.00;99.90;;;;;;5049778;28;20409;-50
2023/02/24 07:56:31;;;;;;;6.22;1.73;;;4.00;99.90;;;;;;5049959;28;20021;-48
2023/02/24 07:59:06;;;;;;;9.25;1.88;;;4.00;99.90;;;;;;5050217;28;20103;-48
2023/02/24 08:01:48;;;;;;;5.55;1.75;;;3.90;99.90;;;;;;5047702;28;20101;-48
2023/02/24 08:04:19;;;;;;;7.00;1.88;;;4.00;99.90;;;;;;5070088;28;20027;-48
2023/02/24 08:06:49;;;;;;;8.15;1.52;;;4.00;99.90;;;;;;5062225;28;20025;-48
2023/02/24 08:09:19;;;;;;;7.30;1.95;;;4.10;99.90;;;;;;5050217;28;20433;-50
2023/02/24 08:11:53;;;;;;;6.70;1.83;;;4.10;99.90;;;;;;5049285;28;20494;-49
2023/02/24 08:14:24;;;;;;;7.80;1.65;;;4.10;99.90;;;;;;5049962;28;20108;-48
2023/02/24 08:16:51;;;;;;;;;;;4.10;99.90;;;;;;5049685;28;20029;-49
2023/02/24 08:19:21;;;;;;;11.95;2.25;;;4.10;99.90;;;;;;5048877;28;19905;-48
2023/02/24 08:21:50;;;;;;;7.05;1.77;;;4.00;99.90;;;;;;5050033;28;20036;-48
2023/02/24 08:24:22;;;;;;;4.75;1.40;;;4.10;99.90;;;;;;5049826;28;20037;-50
2023/02/24 08:27:05;;;;;;;9.15;1.60;;;4.10;99.90;;;;;;5050220;28;20289;-48
2023/02/24 08:29:39;;;;;;;5.68;1.67;;;4.10;99.90;;;;;;5049997;28;20136;-48
2023/02/24 08:32:05;;;;;;;11.90;1.75;;;4.10;99.90;;;;;;5047879;28;20014;-50
2023/02/24 08:34:30;;;;;;;11.43;1.98;;;4.10;99.90;;;;;;5048931;28;20009;-50
2023/02/24 08:36:57;;;;;;;11.05;1.83;;;4.00;99.90;;;;;;5049477;28;20017;-49
2023/02/24 08:39:23;;;;;;;8.65;1.90;;;4.00;99.90;;;;;;5049443;28;20076;-48
2023/02/24 08:41:53;;;;;;;12.27;1.40;;;4.00;99.90;;;;;;5049454;28;20024;-50
2023/02/24 08:44:19;;;;;;;3.95;1.58;;;4.10;99.90;;;;;;5049382;28;20017;-51
2023/02/24 08:46:48;;;;;;;8.32;1.88;;;4.10;99.90;;;;;;5049177;28;20039;-49
2023/02/24 08:49:15;;;;;;;8.70;2.58;;;4.10;99.90;;;;;;5048830;28;20390;-51
2023/02/24 08:51:45;;;;;;;7.35;1.88;;;4.10;99.90;;;;;;5048592;28;20053;-50
2023/02/24 08:54:15;;;;;;;12.00;1.98;;;4.20;99.90;;;;;;5048722;28;20014;-52
2023/02/24 08:56:43;;;;;;;9.65;2.00;;;4.20;99.90;;;;;;5048893;28;20025;-48
2023/02/24 08:59:57;;;;;;;11.70;1.65;;;4.10;99.90;;;;;;5049384;28;20118;-49
2023/02/24 09:02:17;;;;;;;4.77;1.27;;;4.10;99.90;;;;;;5045109;28;20329;-50
2023/02/24 09:05:10;;;;;;;5.20;1.85;;;4.20;99.90;;;;;;5044036;28;20478;-49
2023/02/24 09:07:39;;;;;;;11.63;1.95;;;4.20;99.90;;;;;;5046616;28;20056;-48
2023/02/24 09:10:10;;;;;;;8.25;2.03;;;4.20;99.90;;;;;;5047596;28;20047;-49
2023/02/24 09:12:40;;;;;;;6.13;1.73;;;4.10;99.90;;;;;;5045894;28;20029;-49
2023/02/24 09:15:07;;;;;;;9.60;1.60;;;4.10;99.90;;;;;;5048916;28;20028;-48
2023/02/24 09:17:39;;;;;;;12.60;1.95;;;4.00;99.90;;;;;;5048789;28;20032;-49
2023/02/24 09:22:56;;;;;;;7.15;1.75;;;4.10;99.90;;;;;;5048952;28;20064;-49
2023/02/24 09:25:24;;;;;;;7.30;1.95;;;4.10;99.90;;;;;;5049302;28;20040;-49
2023/02/24 09:27:54;;;;;;;9.90;1.90;;;4.00;99.90;;;;;;5049121;28;20020;-49
2023/02/24 09:30:35;;;;;;;11.23;1.73;;;3.90;99.90;;;;;;5049310;28;20021;-49
2023/02/24 09:33:37;;;;;;;;;;;3.90;99.90;;;;;;5048908;28;20468;-48
2023/02/24 09:44:43;;;;;;;10.93;1.90;;;3.70;99.90;;;;;;5047370;28;20454;-48
2023/02/24 09:47:18;;;;;;;10.65;2.65;;;3.70;99.90;;;;;;5042392;28;20036;-48
2023/02/24 09:49:57;;;;;;;9.02;2.33;;;3.50;99.90;;;;;;5046417;28;20021;-48
2023/02/24 09:52:42;;;;;;;5.60;1.95;;;3.50;99.90;;;;;;5044716;28;20474;-48
2023/02/24 09:55:34;;;;;;;5.85;1.92;;;3.50;99.90;;;;;;5060211;28;20041;-49
2023/02/24 09:58:22;;;;;;;12.15;2.13;;;3.40;99.90;;;;;;5046482;28;20651;-48
2023/02/24 10:00:47;;;;;;;7.93;2.30;;;3.30;99.90;;;;;;5047044;28;20013;-48
2023/02/24 10:03:46;;;;;;;7.68;2.00;;;3.30;99.90;;;;;;5045313;28;20032;-48
2023/02/24 10:06:34;;;;;;;11.73;2.30;;;3.30;99.90;;;;;;5046446;28;20060;-50
2023/02/24 10:09:12;;;;;;;11.57;2.95;;;3.20;99.90;;;;;;5046528;28;20090;-51
2023/02/24 10:11:52;;;;;;;8.75;2.45;;;3.10;99.90;;;;;;5046184;28;20071;-50
2023/02/24 10:14:30;;;;;;;16.45;2.85;;;3.10;99.90;;;;;;5045959;28;20020;-49
2023/02/24 10:17:46;;;;;;;16.23;4.03;;;3.00;99.90;;;;;;5048499;28;20017;-52
2023/02/24 10:19:42;;;;;;;10.23;3.30;;;3.00;99.90;;;;;;5046720;28;20036;-51
2023/02/24 10:22:26;;;;;;;7.47;2.40;;;2.90;99.90;;;;;;5049152;28;20412;-51
2023/02/24 10:25:18;;;;;;;8.25;3.25;;;3.00;99.90;;;;;;5050427;28;20197;-51
2023/02/24 10:27:57;;;;;;;8.90;3.20;;;3.10;99.90;;;;;;5050954;28;20629;-49
2023/02/24 10:30:49;;;;;;;10.38;2.90;;;3.10;99.90;;;;;;5050626;28;20438;-48
2023/02/24 10:33:54;;;;;;;16.10;3.70;;;3.10;99.90;;;;;;5049949;28;20017;-49
2023/02/24 10:36:35;;;;;;;11.57;2.65;;;3.10;99.90;;;;;;5055511;28;20398;-49
2023/02/24 10:39:19;;;;;;;19.15;3.50;;;3.00;99.90;;;;;;5067353;28;20029;-51
2023/02/24 10:42:16;;;;;;;17.98;3.28;;;2.90;99.90;;;;;;5051058;28;20056;-48
2023/02/24 10:44:50;;;;;;;8.90;3.50;;;3.00;99.90;;;;;;5049921;28;20448;-51
2023/02/24 10:47:19;;;;;;;8.77;3.50;;;3.00;99.90;;;;;;5050235;28;20525;-50
2023/02/24 10:49:56;;;;;;;11.82;3.13;;;3.10;99.90;;;;;;5050227;28;20379;-49
2023/02/24 10:55:27;;;;;;;15.00;2.80;;;3.00;99.90;;;;;;5049897;28;20120;-52
2023/02/24 10:58:06;;;;;;;11.20;3.38;;;3.10;99.90;;;;;;5047136;28;20032;-48
2023/02/24 11:03:46;;;;;;;15.15;3.63;;;3.00;99.90;;;;;;5049703;28;20112;-50
2023/02/24 11:07:08;;;;;;;21.42;3.95;;;3.00;99.90;;;;;;5050086;28;20515;-50
2023/02/24 11:17:58;;;;;;;22.02;4.20;;;3.20;99.90;;;;;;5049687;28;20032;-50
2023/02/24 11:20:33;;;;;;;13.30;3.10;;;3.20;99.90;;;;;;5040840;28;20022;-50
2023/02/24 11:23:03;;;;;;;12.88;3.58;;;3.10;99.90;;;;;;5048139;28;20021;-48
2023/02/24 11:25:39;;;;;;;11.23;3.45;;;3.00;99.90;;;;;;5043954;28;20429;-49
2023/02/24 11:28:38;;;;;;;12.98;4.57;;;2.90;99.90;;;;;;5044095;28;20490;-51
2023/02/24 11:31:20;;;;;;;15.32;3.53;;;2.80;99.90;;;;;;5039688;28;20055;-49
2023/02/24 11:33:54;;;;;;;11.80;3.47;;;2.90;99.90;;;;;;5044563;28;20057;-50
2023/02/24 11:36:45;;;;;;;15.02;4.00;;;2.80;99.90;;;;;;5045014;28;20013;-49
2023/02/24 11:39:48;;;;;;;12.15;3.80;;;2.80;99.90;;;;;;5043160;28;20021;-50
2023/02/24 11:42:20;;;;;;;12.35;3.85;;;2.80;99.90;;;;;;5044713;28;20040;-51
2023/02/24 11:44:57;;;;;;;14.38;3.42;;;2.90;99.90;;;;;;5044838;28;20017;-49
2023/02/24 11:47:43;;;;;;;11.50;5.03;;;2.90;99.90;;;;;;5061484;28;20530;-51
2023/02/24 11:50:35;;;;;;;13.93;3.97;;;2.90;99.90;;;;;;5039388;28;20032;-49
2023/02/24 11:53:11;;;;;;;12.73;4.50;;;2.70;99.90;;;;;;5055186;28;20025;-52
2023/02/24 11:55:42;;;;;;;7.80;4.07;;;2.70;99.90;;;;;;5046055;28;20019;-50
2023/02/24 11:58:34;;;;;;;15.57;4.28;;;2.70;99.90;;;;;;5041971;28;20021;-49
2023/02/24 12:01:09;;;;;;;7.00;3.67;;;2.60;99.90;;;;;;5044243;28;20037;-50
2023/02/24 12:03:52;;;;;;;14.73;4.57;;;2.60;99.90;;;;;;5052544;28;20031;-50
2023/02/24 12:06:48;;;;;;;18.67;5.57;;;2.70;99.90;;;;;;5045249;28;20394;-51
2023/02/24 12:09:19;;;;;;;12.93;4.97;;;2.70;99.90;;;;;;5050263;28;20036;-49
2023/02/24 12:11:58;;;;;;;8.20;4.00;;;2.80;99.90;;;;;;5045508;28;20028;-49
2023/02/24 12:14:43;;;;;;;12.50;4.45;;;2.80;99.90;;;;;;5048720;28;20020;-49
2023/02/24 12:17:33;;;;;;;15.90;4.55;;;2.90;99.90;;;;;;5048487;28;20482;-51
2023/02/24 12:20:06;;;;;;;11.77;4.43;;;2.90;99.90;;;;;;5055202;28;20630;-49
2023/02/24 12:22:49;;;;;;;12.10;4.10;;;2.90;99.90;;;;;;5053492;28;20039;-52
2023/02/24 12:25:18;;;;;;;10.45;4.13;;;2.90;99.90;;;;;;5068211;28;20024;-51
2023/02/24 12:27:55;;;;;;;18.13;4.43;;;2.90;99.90;;;;;;5067874;28;20017;-51
2023/02/24 12:30:35;;;;;;;8.30;3.63;;;2.90;99.90;;;;;;5050780;28;20028;-50
2023/02/24 12:33:23;;;;;;;12.77;4.53;;;2.90;99.90;;;;;;5047813;28;20926;-51
2023/02/24 12:36:11;;;;;;;6.97;4.32;;;2.90;99.90;;;;;;5047787;28;20017;-51
2023/02/24 12:38:59;;;;;;;10.00;4.55;;;2.90;99.90;;;;;;5048131;28;20032;-49
2023/02/24 12:41:41;;;;;;;9.45;4.32;;;2.90;99.90;;;;;;5048162;28;20025;-52
2023/02/24 12:44:15;;;;;;;14.52;4.68;;;2.90;99.90;;;;;;5048248;28;20387;-49
2023/02/24 12:46:45;;;;;;;9.23;4.63;;;2.90;99.90;;;;;;5048665;28;20029;-49
2023/02/24 12:49:14;;;;;;;12.75;4.47;;;2.90;99.90;;;;;;5052802;28;20009;-53
2023/02/24 12:51:49;;;;;;;14.25;5.28;;;2.90;99.90;;;;;;5059534;28;20057;-52
2023/02/24 12:54:36;;;;;;;16.08;4.13;;;2.90;99.90;;;;;;5047579;28;20020;-50
2023/02/24 12:57:38;;;;;;;7.97;4.75;;;2.70;99.90;;;;;;5047320;28;20020;-49
2023/02/24 13:00:28;;;;;;;8.90;5.03;;;2.80;99.90;;;;;;5047493;28;20047;-50
2023/02/24 13:03:04;;;;;;;12.00;5.70;;;2.80;99.90;;;;;;5046908;28;20305;-56
2023/02/24 13:05:38;;;;;;;12.38;5.82;;;2.70;99.90;;;;;;5048187;28;20140;-51
2023/02/24 13:08:20;;;;;;;10.40;5.47;;;2.70;99.90;;;;;;5047478;28;20478;-49
2023/02/24 13:11:11;;;;;;;7.97;5.68;;;2.60;99.90;;;;;;5047362;28;20032;-51
2023/02/24 13:13:58;;;;;;;9.90;5.35;;;2.70;99.90;;;;;;5047124;28;20021;-48
2023/02/24 13:16:33;;;;;;;10.45;5.95;;;2.80;99.90;;;;;;5046675;28;20017;-49
2023/02/24 13:19:27;;;;;;;9.73;5.93;;;2.90;99.90;;;;;;5047231;28;20087;-49
2023/02/24 13:21:57;;;;;;;9.45;6.15;;;2.90;99.90;;;;;;5046502;28;20029;-49
2023/02/24 13:24:24;;;;;;;11.55;6.80;;;2.80;99.90;;;;;;5046965;28;20370;-49
2023/02/24 13:26:50;;;;;;;11.98;6.80;;;2.90;99.90;;;;;;5046672;28;20029;-49
2023/02/24 13:29:16;;;;;;;10.23;6.95;;;2.80;99.90;;;;;;5047589;28;20032;-49
2023/02/24 13:31:47;;;;;;;10.15;6.32;;;2.90;99.90;;;;;;5046813;28;20837;-49
2023/02/24 13:34:32;;;;;;;10.02;6.85;;;2.70;99.90;;;;;;5046872;28;20028;-49
2023/02/24 13:36:58;;;;;;;10.77;7.35;;;2.70;99.90;;;;;;5046961;28;20029;-49
2023/02/24 13:39:35;;;;;;;11.40;6.90;;;2.70;99.90;;;;;;5046177;28;20186;-49
2023/02/24 13:42:05;;;;;;;14.07;7.25;;;2.70;99.90;;;;;;5046998;28;20351;-48
2023/02/24 13:44:30;;;;;;;11.27;8.10;;;2.70;99.90;;;;;;5046993;28;20079;-49
2023/02/24 13:47:18;;;;;;;13.80;8.60;;;2.70;99.90;;;;;;5064967;28;20045;-51
2023/02/24 13:50:00;;;;;;;14.20;9.65;;;2.60;99.90;;;;;;5046866;28;20029;-48
2023/02/24 13:52:41;;;;;;;17.17;10.05;;;2.70;99.90;;;;;;5040157;28;20446;-48
2023/02/24 13:55:39;;;;;;;12.52;9.00;;;2.70;99.90;;;;;;5045536;28;20021;-43
2023/02/24 13:58:23;;;;;;;13.52;9.35;;;2.80;99.90;;;;;;5046023;28;20035;-43
2023/02/24 14:01:13;;;;;;;13.27;10.02;;;2.80;99.90;;;;;;5045621;28;20055;-43